Airport View

Enter AWOS ICAO identifier for current METAR.

ex. KFNL

K20V 251055Z AUTO 34009KT 10SM SCT070 05/M01 A2973 RMK AO2

25 Oct 2020 11:30

Frequency: 118.425

Phone: 970-724-9659

Other Area AWOS: KGNB - KC07 - K0CO - KEGE

TAF KEGE 250531Z 2506/2606 13003KT P6SM BKN100 FM251300 27006KT P6SM VCSH SCT040 OVC070 FM251500 26005KT 4SM -SHRA BR SCT019 OVC045 FM251800 24005KT 1SM -SN BR SCT010 OVC030 FM252100 25011G19KT 1/2SM SN FG SCT008 OVC010